Time;durP1;ratioP1;P1;durP2;ratioP2;P2;SDS_P1;SDS_P2;PMS_P1;PMS_P2;Temp;Humidity;BMP_temperature;BMP_pressure;BME280_temperature;BME280_humidity;BME280_pressure;Samples;Min_cycle;Max_cycle;Signal;HPM_P1;HPM_P2
2023/11/22 09:45:48;;;;;;;12.40;6.50;;;;;;;-1.92;100.00;102294.69;5109037;27;20355;-91
2023/11/22 09:48:23;;;;;;;9.40;5.40;;;;;;;-1.79;100.00;102298.84;5056557;28;20128;-90
2023/11/22 09:51:04;;;;;;;11.13;5.77;;;;;;;-1.75;100.00;102308.59;5054847;28;20456;-90
2023/11/22 09:53:46;;;;;;;11.43;6.17;;;;;;;-1.62;100.00;102318.81;5055080;28;20119;-92
2023/11/22 09:56:14;;;;;;;14.10;7.23;;;;;;;-1.52;100.00;102322.78;5071307;28;20075;-92
2023/11/22 09:58:44;;;;;;;13.03;7.20;;;;;;;-1.37;100.00;102321.03;5055739;28;20040;-93
2023/11/22 10:01:13;;;;;;;11.30;5.77;;;;;;;-1.28;100.00;102324.13;5072876;28;20059;-93
2023/11/22 10:03:40;;;;;;;14.80;6.60;;;;;;;-1.11;100.00;102318.97;5066091;28;20066;-94
2023/11/22 10:06:08;;;;;;;11.20;6.00;;;;;;;-0.90;100.00;102315.81;5078800;28;20056;-94
2023/11/22 10:09:29;;;;;;;11.60;6.10;;;;;;;-0.67;100.00;102322.19;5081133;28;20028;-95
2023/11/22 10:12:22;;;;;;;11.50;6.10;;;;;;;-0.60;100.00;102328.56;5098324;28;20024;-93
2023/11/22 10:14:49;;;;;;;10.03;5.27;;;;;;;-0.42;100.00;102333.81;5081632;28;20028;-92
2023/11/22 10:17:16;;;;;;;9.23;4.83;;;;;;;-0.47;100.00;102336.19;5080842;28;20025;-91
2023/11/22 10:19:43;;;;;;;10.80;5.10;;;;;;;-0.42;100.00;102326.03;5080849;28;20032;-89
2023/11/22 10:22:15;;;;;;;7.77;4.80;;;;;;;-0.31;100.00;102327.47;5080593;28;20028;-88
2023/11/22 10:24:43;;;;;;;10.33;5.60;;;;;;;-0.22;100.00;102322.75;5081122;28;20024;-88
2023/11/22 10:27:10;;;;;;;9.27;5.60;;;;;;;-0.12;100.00;102329.28;5077879;28;20044;-91
2023/11/22 10:29:37;;;;;;;7.83;4.80;;;;;;;-0.05;100.00;102321.88;5073481;28;20063;-92
2023/11/22 10:32:05;;;;;;;7.43;4.63;;;;;;;0.05;100.00;102328.41;5070382;28;20040;-93
2023/11/22 10:34:31;;;;;;;8.63;4.67;;;;;;;0.43;98.51;102321.56;5068666;28;20045;-94
2023/11/22 10:36:58;;;;;;;10.23;5.13;;;;;;;0.61;98.99;102322.41;5061093;28;20512;-92
2023/11/22 10:39:26;;;;;;;7.67;4.67;;;;;;;0.72;96.16;102328.13;5054653;28;20573;-92
2023/11/22 10:41:54;;;;;;;9.00;5.30;;;;;;;0.87;90.45;102336.63;5069030;28;20127;-92
2023/11/22 10:44:22;;;;;;;7.20;4.70;;;;;;;0.98;90.63;102329.31;5050800;28;20040;-94
2023/11/22 10:46:50;;;;;;;6.27;4.20;;;;;;;1.02;92.54;102329.53;5050123;28;20041;-93
2023/11/22 10:49:17;;;;;;;10.10;5.03;;;;;;;1.21;90.54;102319.91;5050647;28;20079;-91
2023/11/22 10:51:50;;;;;;;7.03;3.70;;;;;;;1.33;92.00;102310.91;5066981;28;20131;-91
2023/11/22 10:54:18;;;;;;;7.23;3.90;;;;;;;1.54;86.03;102307.47;5050531;28;20110;-90
2023/11/22 10:56:46;;;;;;;6.17;3.73;;;;;;;1.56;84.24;102306.69;5039025;28;20185;-92
2023/11/22 10:59:14;;;;;;;6.33;3.97;;;;;;;1.82;81.99;102310.41;5053625;28;20052;-91
2023/11/22 11:01:45;;;;;;;6.93;4.27;;;;;;;1.91;77.80;102296.84;5036963;28;20418;-92
2023/11/22 11:04:52;;;;;;;8.27;4.10;;;;;;;1.87;78.68;102294.97;5037362;28;20107;-93
2023/11/22 11:07:22;;;;;;;7.50;4.20;;;;;;;1.79;75.25;102291.16;5058725;28;20040;-91
2023/11/22 11:09:50;;;;;;;6.73;3.73;;;;;;;2.01;75.01;102279.88;5061101;28;20474;-92
2023/11/22 11:12:18;;;;;;;6.73;4.00;;;;;;;2.32;71.30;102277.66;5059821;28;20451;-92
2023/11/22 11:14:46;;;;;;;6.13;3.20;;;;;;;2.25;71.62;102276.53;5060062;28;20047;-92
2023/11/22 11:17:14;;;;;;;5.63;3.20;;;;;;;2.23;74.56;102266.88;5060154;28;20036;-91
2023/11/22 11:19:41;;;;;;;8.30;3.70;;;;;;;2.31;73.14;102257.63;5060087;28;20561;-92
2023/11/22 11:22:10;;;;;;;6.03;3.17;;;;;;;2.41;72.23;102245.81;5059759;28;20047;-91
2023/11/22 11:24:41;;;;;;;5.33;3.23;;;;;;;2.45;68.31;102235.59;5059745;28;20040;-92
2023/11/22 11:27:09;;;;;;;5.53;3.00;;;;;;;2.45;69.97;102237.31;5059742;28;20406;-91
2023/11/22 11:29:40;;;;;;;6.50;3.40;;;;;;;2.47;72.75;102249.56;5059596;28;20047;-91
2023/11/22 11:32:13;;;;;;;8.23;4.50;;;;;;;2.64;69.64;102247.59;5060258;28;20528;-91
2023/11/22 11:34:50;;;;;;;6.77;4.00;;;;;;;2.49;69.63;102247.88;5059793;28;20413;-91
2023/11/22 11:37:20;;;;;;;8.00;3.97;;;;;;;2.40;71.04;102236.22;5057384;28;20055;-91
2023/11/22 11:39:47;;;;;;;6.70;3.70;;;;;;;2.42;72.18;102226.72;5039831;28;20044;-91
2023/11/22 11:42:14;;;;;;;6.63;4.13;;;;;;;2.70;68.82;102224.34;5039249;28;20048;-91
2023/11/22 11:44:57;;;;;;;5.93;3.03;;;;;;;2.52;68.26;102215.81;5040359;28;20041;-91
2023/11/22 11:47:24;;;;;;;4.73;3.17;;;;;;;2.44;69.13;102201.63;5055683;28;20076;-91
2023/11/22 11:49:51;;;;;;;6.00;3.10;;;;;;;2.67;68.07;102213.75;5038961;28;20040;-91
2023/11/22 11:52:18;;;;;;;5.83;3.50;;;;;;;2.56;68.71;102212.50;5039186;28;20517;-91
2023/11/22 11:54:45;;;;;;;4.03;2.80;;;;;;;2.46;67.77;102199.94;5039182;28;20043;-91
2023/11/22 11:57:12;;;;;;;5.00;2.83;;;;;;;2.65;66.78;102184.13;5039226;28;20054;-91
2023/11/22 11:59:39;;;;;;;5.57;3.53;;;;;;;2.46;68.24;102172.13;5039262;28;20044;-91
2023/11/22 12:02:08;;;;;;;5.57;3.10;;;;;;;2.41;69.15;102160.63;5039705;28;20044;-92
2023/11/22 12:04:36;;;;;;;4.83;3.10;;;;;;;2.59;66.99;102152.59;5039120;28;20131;-91
2023/11/22 12:07:03;;;;;;;5.40;3.27;;;;;;;2.53;66.18;102147.16;5034015;28;20045;-91
2023/11/22 12:09:40;;;;;;;6.97;3.10;;;;;;;2.51;67.17;102135.75;5009272;28;20068;-91
2023/11/22 12:12:07;;;;;;;5.17;3.10;;;;;;;2.67;66.27;102138.09;5019422;28;20450;-91
2023/11/22 12:14:34;;;;;;;4.80;2.90;;;;;;;2.58;65.20;102124.72;5038451;28;20045;-91
2023/11/22 12:17:01;;;;;;;4.50;2.87;;;;;;;2.43;67.32;102108.53;5018592;28;20079;-91
2023/11/22 12:19:31;;;;;;;3.87;2.60;;;;;;;2.38;69.25;102125.75;5037890;28;20467;-91
2023/11/22 12:21:58;;;;;;;4.60;2.90;;;;;;;2.41;69.71;102121.50;5042018;28;20052;-91
2023/11/22 12:24:26;;;;;;;4.97;3.07;;;;;;;2.56;68.29;102120.28;5039497;28;20075;-91
2023/11/22 12:26:55;;;;;;;5.73;2.60;;;;;;;2.70;66.16;102112.13;5036377;28;20060;-92
2023/11/22 12:29:23;;;;;;;4.90;2.83;;;;;;;2.69;67.09;102123.41;5041338;28;20083;-91
2023/11/22 12:31:52;;;;;;;6.00;3.30;;;;;;;2.66;66.59;102138.03;5036094;28;20036;-91
2023/11/22 12:34:20;;;;;;;4.93;2.80;;;;;;;2.62;65.94;102141.41;5032849;28;20052;-91
2023/11/22 12:36:49;;;;;;;3.93;2.40;;;;;;;2.67;65.52;102130.25;5033095;28;20049;-91
2023/11/22 12:39:16;;;;;;;4.97;2.90;;;;;;;2.54;65.65;102141.13;5036545;28;20041;-91
2023/11/22 12:41:47;;;;;;;5.47;2.90;;;;;;;2.58;65.12;102157.75;5017377;28;20490;-91
2023/11/22 12:44:28;;;;;;;4.40;2.90;;;;;;;2.65;63.39;102165.84;5033411;28;20521;-91
2023/11/22 12:46:58;;;;;;;4.10;2.40;;;;;;;2.66;61.57;102185.91;5033142;28;20103;-91
2023/11/22 12:49:26;;;;;;;3.00;2.47;;;;;;;2.49;62.94;102193.09;5033044;28;20063;-91
2023/11/22 12:51:56;;;;;;;3.87;2.60;;;;;;;2.52;62.03;102187.09;5032735;28;20094;-91
2023/11/22 12:54:23;;;;;;;4.10;2.20;;;;;;;2.34;63.29;102184.72;5016761;28;20045;-92
2023/11/22 12:56:54;;;;;;;3.73;2.20;;;;;;;2.18;63.84;102184.97;5016614;28;20044;-91
2023/11/22 12:59:21;;;;;;;4.97;3.63;;;;;;;2.15;64.45;102167.50;5052526;28;20101;-92
2023/11/22 13:01:47;;;;;;;4.07;3.13;;;;;;;2.05;65.29;102180.13;5030915;28;20041;-91
2023/11/22 13:04:15;;;;;;;5.90;3.77;;;;;;;2.04;67.03;102163.59;5027285;28;20524;-91
2023/11/22 13:06:43;;;;;;;8.77;5.77;;;;;;;1.98;67.99;102152.94;5016764;28;20138;-91
2023/11/22 13:09:14;;;;;;;10.63;6.10;;;;;;;1.94;68.81;102159.75;5051845;28;20047;-91
2023/11/22 13:11:43;;;;;;;9.97;6.00;;;;;;;1.90;72.10;102172.59;5059164;28;20044;-91
2023/11/22 13:14:13;;;;;;;7.00;4.83;;;;;;;1.86;73.79;102170.72;5044743;28;20425;-91
2023/11/22 13:16:41;;;;;;;6.70;4.07;;;;;;;1.84;76.88;102162.81;5027463;28;20068;-91
2023/11/22 13:19:09;;;;;;;7.67;4.30;;;;;;;1.81;78.45;102136.66;5023327;28;20099;-90
2023/11/22 13:21:36;;;;;;;5.60;3.60;;;;;;;1.80;78.69;102119.22;5017898;28;20048;-91
2023/11/22 13:24:06;;;;;;;6.40;3.80;;;;;;;1.78;78.38;102120.91;5019408;28;20086;-91
2023/11/22 13:26:36;;;;;;;6.20;3.60;;;;;;;1.72;79.02;102112.84;5034769;28;20099;-93
2023/11/22 13:29:03;;;;;;;5.23;3.03;;;;;;;1.69;80.22;102121.44;5060993;28;20048;-91
2023/11/22 13:31:30;;;;;;;5.57;3.53;;;;;;;1.65;82.05;102129.94;5016597;28;20048;-91
2023/11/22 13:33:57;;;;;;;4.03;3.07;;;;;;;1.61;84.57;102130.66;5017529;28;20536;-91
2023/11/22 13:36:24;;;;;;;5.10;3.37;;;;;;;1.57;85.07;102118.34;5025715;28;20112;-91
2023/11/22 13:38:52;;;;;;;6.77;3.90;;;;;;;1.56;85.34;102118.28;5032297;28;20136;-90
2023/11/22 13:41:19;;;;;;;5.60;3.60;;;;;;;1.54;86.17;102119.94;5033713;28;20406;-92
2023/11/22 13:43:48;;;;;;;5.33;3.23;;;;;;;1.50;86.83;102108.50;5018244;28;20072;-89
2023/11/22 13:46:17;;;;;;;5.60;3.27;;;;;;;1.46;86.99;102108.34;5037108;28;20124;-90
2023/11/22 13:48:44;;;;;;;6.37;4.23;;;;;;;1.37;84.56;102101.94;5054260;28;20044;-90
2023/11/22 13:51:11;;;;;;;6.90;4.50;;;;;;;1.32;83.69;102092.16;5044772;28;20048;-91
2023/11/22 13:53:42;;;;;;;8.80;5.27;;;;;;;1.29;83.96;102085.09;5043004;28;20127;-92
2023/11/22 13:56:11;;;;;;;12.73;5.83;;;;;;;1.27;83.89;102085.88;5043744;28;20045;-92
2023/11/22 13:58:41;;;;;;;13.60;7.30;;;;;;;1.26;85.18;102084.09;5043142;28;20052;-92
2023/11/22 14:01:13;;;;;;;12.03;6.93;;;;;;;1.19;86.54;102077.78;5039371;28;20090;-92
2023/11/22 14:03:40;;;;;;;12.90;5.97;;;;;;;1.16;87.24;102076.72;5056614;28;20045;-92
2023/11/22 14:06:07;;;;;;;13.83;6.87;;;;;;;1.13;87.06;102075.78;5040080;28;20040;-92
2023/11/22 14:08:34;;;;;;;12.30;6.83;;;;;;;1.10;87.09;102070.47;5038919;28;20037;-92
2023/11/22 14:11:02;;;;;;;12.77;7.90;;;;;;;1.06;87.14;102078.97;5038086;28;20414;-91
2023/11/22 14:13:29;;;;;;;10.43;6.03;;;;;;;1.06;84.61;102081.56;5039414;28;20043;-91
